Terminal Aerodrome Forecast
Issued by NWS Goodland, KS

Home | Current Version | Previous Version | Text Only | Print | Product List | Glossary On
Versions: 1 2 3 4 5 6 7 8 9 10 11 12 13 14
603
FTUS43 KGLD 032329
TAFGLD
TAF
KGLD 032329Z 0400/0424 19006KT P6SM SCT220
     FM040200 23006KT P6SM BKN150
     FM040400 27007KT P6SM BKN150
     FM040600 30008KT P6SM SCT130
     FM041900 27006KT P6SM SKC
     FM042000 24007KT P6SM SKC
     FM042200 21009KT P6SM FEW250=

USA.gov is the U.S. government's official web portal to all federal, state and local government web resources and services.